Latest Weather Observations for Kowanyama

IDQ60801

Issued at 10:32 am EST Monday 21 August 2017 (issued every 30 minutes, with the page automatically refreshed every 10 minutes)

About weather observations | Map of weather stations | Latest weather observations for QLD | Other Formats
Station Details ID: 029038 Name: KOWANYAMA AIRPORT Lat: -15.48 Lon: 141.75 Height: 9.6 m
Data from the previous 72 hours. | See also: Recent months at Kowanyama
Date/Time
EST
Temp
°C
App
Temp
°C
Dew
Point
°C
Rel
Hum
%
Delta-T
°C
Wind Press
QNH
hPa
Press
MSL
hPa
Rain since
9am
mm
Dir  Spd
km/h
Gust
km/h
Spd
kts
Gust
kts
21/10:30am 27.1 25.5 13.8 44 7.9 ENE 15 24 8 13 1016.3 1016.3 0.0
21/10:00am 25.8 23.1 13.6 47 7.2 NE 20 28 11 15 1016.5 1016.5 0.0
21/09:30am 24.9 22.2 13.5 49 6.7 ENE 20 30 11 16 1016.5 1016.5 0.0
21/09:00am 23.6 21.5 13.5 53 5.9 NE 17 32 9 17 1016.3 1016.3 0.0
21/08:30am 22.8 22.1 14.4 59 4.9 ENE 11 17 6 9 1016.1 1016.1 0.0
21/08:00am 20.6 20.8 14.7 69 3.5 E 7 13 4 7 1015.9 1015.9 0.0
21/07:30am 18.1 19.2 15.7 86 1.4 ENE 4 6 2 3 1015.6 1015.6 0.0
21/07:00am 16.8 17.7 15.0 89 1.0 ENE 4 6 2 3 1015.1 1015.1 0.0
21/06:30am 17.2 18.4 14.8 86 1.4 ENE 2 6 1 3 1014.6 1014.5 0.0
21/06:00am 18.1 18.5 14.8 81 1.9 ENE 6 7 3 4 1014.2 1014.1 0.0
21/05:30am 18.4 19.1 15.5 83 1.7 ENE 6 9 3 5 1013.9 1013.8 0.0
21/05:00am 18.3 19.1 15.9 86 1.4 NE 6 9 3 5 1013.6 1013.5 0.0
21/04:30am 18.5 19.6 16.5 88 1.2 NE 6 7 3 4 1013.6 1013.5 0.0
21/04:00am 18.7 19.9 16.9 89 1.1 NE 6 7 3 4 1013.6 1013.5 0.0
21/03:30am 19.1 20.4 17.1 88 1.2 ENE 6 7 3 4 1013.5 1013.4 0.0
21/03:00am 19.3 20.7 17.4 89 1.2 NE 6 7 3 4 1013.6 1013.5 0.0
21/02:30am 19.6 21.5 17.6 88 1.2 ENE 4 6 2 3 1013.8 1013.7 0.0
21/02:00am 20.1 22.1 17.9 87 1.4 NE 4 6 2 3 1014.0 1013.9 0.0
21/01:30am 20.8 22.7 18.6 87 1.4 NE 6 7 3 4 1014.2 1014.1 0.0
21/01:00am 21.5 23.4 18.5 83 1.9 NE 6 9 3 5 1014.4 1014.3 0.0
21/12:30am 21.8 23.8 18.8 83 1.9 NNE 6 11 3 6 1014.5 1014.4 0.0
21/12:00am 22.1 23.5 19.5 85 1.7 NE 11 19 6 10 1014.6 1014.5 0.0
 
Date/Time
EST
Temp
°C
App
Temp
°C
Dew
Point
°C
Rel
Hum
%
Delta-T
°C
Wind Press
QNH
hPa
Press
MSL
hPa
Rain since
9am
mm
Dir  Spd
km/h
Gust
km/h
Spd
kts
Gust
kts
20/11:30pm 21.4 23.4 19.1 87 1.5 SSW 7 13 4 7 1013.9 1013.8 0.0
20/11:00pm 21.8 23.4 19.2 85 1.6 SSW 9 11 5 6 1013.8 1013.7 0.0
20/10:30pm 22.1 23.4 19.3 84 1.8 SSW 11 15 6 8 1013.9 1013.8 0.0
20/10:00pm 22.4 24.1 19.4 83 1.9 SSW 9 13 5 7 1013.9 1013.8 0.0
20/09:30pm 22.8 24.5 19.4 81 2.2 SSW 9 15 5 8 1013.8 1013.7 0.0
20/09:00pm 23.2 24.5 19.4 79 2.4 SW 11 15 6 8 1013.8 1013.7 0.0
20/08:30pm 23.5 24.8 19.4 78 2.6 SW 11 15 6 8 1013.7 1013.6 0.0
20/08:00pm 23.9 24.9 19.4 76 2.9 SW 13 19 7 10 1013.2 1013.1 0.0
20/07:30pm 24.3 24.9 18.7 71 3.6 SW 13 15 7 8 1012.8 1012.7 0.0
20/07:00pm 25.2 25.8 18.6 67 4.2 SW 13 22 7 12 1012.4 1012.3 0.0
20/06:30pm 26.3 26.7 18.2 61 5.1 WSW 13 19 7 10 1012.0 1011.9 0.0
20/06:00pm 27.5 27.2 18.2 57 5.9 WSW 17 22 9 12 1011.6 1011.5 0.0
20/05:30pm 28.9 28.4 17.7 50 7.1 WSW 17 20 9 11 1011.5 1011.4 0.0
20/05:00pm 30.1 29.3 17.9 48 7.8 WSW 19 24 10 13 1011.2 1011.1 0.0
20/04:30pm 33.3 31.6 11.2 26 12.9 ESE 11 24 6 13 1011.1 1011.0 0.0
20/04:00pm 32.9 30.4 9.7 24 13.2 SSE 13 22 7 12 1011.1 1011.0 0.0
20/03:30pm 32.6 29.4 10.0 25 12.9 S 17 22 9 12 1011.3 1011.2 0.0
20/03:00pm 32.0 29.4 10.7 27 12.3 SE 15 26 8 14 1011.6 1011.5 0.0
20/02:30pm 32.9 31.4 12.0 28 12.4 E 11 20 6 11 1012.0 1011.9 0.0
20/02:00pm 32.3 30.5 12.0 29 12.0 E 13 24 7 13 1012.5 1012.4 0.0
20/01:30pm 31.2 29.1 12.5 31 11.1 ESE 15 26 8 14 1013.0 1012.9 0.0
20/01:00pm 32.2 30.7 14.3 33 10.9 E 15 24 8 13 1013.5 1013.4 0.0
20/12:30pm 30.7 28.6 13.5 35 10.3 SE 17 22 9 12 1013.9 1013.8 0.0
20/12:00pm 30.7 29.4 14.8 38 9.7 ENE 15 26 8 14 1014.4 1014.3 0.0
20/11:30am 29.3 28.5 15.1 42 8.7 E 13 20 7 11 1014.9 1014.9 0.0
20/11:00am 28.4 27.4 15.7 46 7.8 ENE 15 28 8 15 1015.4 1015.4 0.0
20/10:30am 28.0 27.5 16.9 51 6.9 E 15 24 8 13 1015.8 1015.8 0.0
20/10:00am 26.7 25.1 16.6 54 6.2 ENE 20 26 11 14 1016.0 1016.0 0.0
20/09:30am 26.3 25.5 17.9 60 5.3 ENE 19 30 10 16 1016.1 1016.1 0.0
20/09:00am 25.2 24.9 18.2 65 4.4 ENE 17 26 9 14 1016.1 1016.1 0.0
20/08:30am 23.8 24.4 17.8 69 3.7 ENE 11 20 6 11 1016.0 1016.0 0.0
20/08:00am 22.2 24.7 18.2 78 2.5 ESE 2 7 1 4 1015.9 1015.9 0.0
20/07:30am 18.8 20.8 15.9 83 1.7 CALM 0 0 0 0 1015.7 1015.7 0.0
20/07:00am 17.6 19.1 14.7 83 1.7 CALM 0 0 0 0 1015.5 1015.5 0.0
20/06:30am 18.5 18.9 14.8 79 2.2 ESE 6 7 3 4 1015.2 1015.2 0.0
20/06:00am 18.3 18.5 14.6 79 2.1 SE 7 7 4 4 1015.0 1015.0 0.0
20/05:30am 19.8 20.6 15.9 78 2.3 ESE 6 7 3 4 1014.5 1014.4 0.0
20/05:00am 20.4 21.3 16.0 76 2.6 E 6 9 3 5 1014.2 1014.1 0.0
20/04:30am 20.7 21.0 15.0 70 3.4 E 7 11 4 6 1014.0 1013.9 0.0
20/04:00am 21.3 21.5 14.7 66 3.9 E 7 11 4 6 1013.9 1013.8 0.0
20/03:30am 21.4 20.9 12.0 55 5.3 E 6 9 3 5 1013.9 1013.8 0.0
20/03:00am 22.8 21.8 10.9 47 6.6 ESE 7 11 4 6 1013.9 1013.8 0.0
20/02:30am 23.1 21.1 7.2 36 8.3 ESE 7 11 4 6 1014.1 1014.0 0.0
20/02:00am 23.9 21.1 7.1 34 8.7 SE 11 13 6 7 1014.0 1013.9 0.0
20/01:30am 23.1 20.8 9.1 41 7.5 SSE 11 15 6 8 1014.0 1013.9 0.0
20/01:00am 22.3 20.8 12.0 52 5.8 SSE 11 15 6 8 1014.1 1014.0 0.0
20/12:30am 22.6 21.8 12.8 54 5.6 S 9 11 5 6 1014.1 1014.0 0.0
20/12:00am 23.7 22.6 14.4 56 5.5 ESE 13 22 7 12 1014.5 1014.4 0.0
 
Date/Time
EST
Temp
°C
App
Temp
°C
Dew
Point
°C
Rel
Hum
%
Delta-T
°C
Wind Press
QNH
hPa
Press
MSL
hPa
Rain since
9am
mm
Dir  Spd
km/h
Gust
km/h
Spd
kts
Gust
kts
19/11:30pm 21.8 22.4 16.7 73 3.1 SSW 9 11 5 6 1013.6 1013.5 0.0
19/11:00pm 22.1 22.4 17.0 73 3.1 SSW 11 15 6 8 1013.7 1013.6 0.0
19/10:30pm 22.6 23.5 17.5 73 3.2 SSW 9 15 5 8 1013.8 1013.7 0.0
19/10:00pm 22.3 23.6 17.2 73 3.1 SSW 6 7 3 4 1013.9 1013.8 0.0
19/09:30pm 22.9 24.2 17.6 72 3.3 SW 7 9 4 5 1013.8 1013.7 0.0
19/09:00pm 23.5 24.8 17.5 69 3.7 WSW 7 9 4 5 1013.6 1013.5 0.0
19/08:30pm 24.1 25.4 17.6 67 4.0 WSW 7 11 4 6 1013.5 1013.4 0.0
19/08:00pm 24.7 25.8 17.9 66 4.3 WSW 9 13 5 7 1013.3 1013.2 0.0
19/07:30pm 25.4 26.3 18.3 65 4.5 SW 11 17 6 9 1013.0 1012.9 0.0
19/07:00pm 26.1 26.9 18.2 61 5.0 WSW 11 17 6 9 1012.6 1012.5 0.0
19/06:30pm 27.3 27.0 18.3 58 5.7 W 17 20 9 11 1012.2 1012.1 0.0
19/06:00pm 28.9 29.0 18.4 53 6.7 WSW 15 22 8 12 1011.7 1011.6 0.0
19/05:30pm 31.0 31.3 18.0 45 8.3 SW 13 20 7 11 1011.4 1011.3 0.0
19/05:00pm 35.2 32.3 8.1 19 15.2 ESE 13 20 7 11 1011.2 1011.1 0.0
19/04:30pm 35.4 31.8 8.3 19 15.3 ESE 17 28 9 15 1011.2 1011.1 0.0
19/04:00pm 35.5 32.6 9.8 21 14.9 SE 15 24 8 13 1011.1 1011.0 0.0
19/03:30pm 35.8 32.6 10.1 21 14.9 SSE 17 24 9 13 1011.4 1011.3 0.0
19/03:00pm 34.6 31.9 10.4 23 14.1 ESE 15 20 8 11 1011.7 1011.6 0.0
19/02:30pm 34.3 31.9 10.2 23 13.9 ESE 13 20 7 11 1012.2 1012.1 0.0
19/02:00pm 34.2 32.2 11.4 25 13.4 ESE 13 26 7 14 1012.6 1012.5 0.0
19/01:30pm 34.3 31.3 10.8 24 13.7 E 17 24 9 13 1013.2 1013.1 0.0
19/01:00pm 33.0 29.5 10.9 26 12.8 ESE 20 30 11 16 1013.8 1013.7 0.0
19/12:30pm 32.1 28.9 11.3 28 12.1 ESE 19 26 10 14 1014.4 1014.3 0.0
19/12:00pm 31.3 28.2 12.2 31 11.2 ESE 20 32 11 17 1015.1 1015.1 0.0
19/11:30am 30.6 27.2 12.5 33 10.7 ESE 22 35 12 19 1015.4 1015.4 0.0
19/11:00am 29.7 27.3 13.9 38 9.5 SE 19 28 10 15 1015.9 1015.9 0.0
19/10:30am 28.1 27.4 15.4 46 7.8 ESE 13 17 7 9 1016.1 1016.1 0.0
19/10:00am 26.8 26.4 16.1 52 6.6 ESE 13 19 7 10 1016.2 1016.2 0.0
19/09:30am 25.4 24.4 16.5 58 5.5 ENE 17 22 9 12 1016.2 1016.2 0.0
19/09:00am 24.2 23.5 17.4 65 4.2 NE 17 24 9 13 1016.1 1016.1 0.0
19/08:30am 22.9 23.0 17.4 71 3.4 NE 13 20 7 11 1015.9 1015.9 0.0
19/08:00am 21.0 21.4 17.2 79 2.3 NE 11 15 6 8 1015.9 1015.9 0.0
19/07:30am 19.3 20.5 17.4 89 1.2 NE 7 9 4 5 1015.7 1015.7 0.0
19/07:00am 18.0 19.1 16.7 92 0.8 ENE 6 7 3 4 1015.3 1015.3 0.0
19/06:30am 18.1 20.0 16.6 91 0.9 NE 2 6 1 3 1015.0 1015.0 0.0
19/06:00am 18.4 19.3 16.2 87 1.3 E 6 7 3 4 1014.7 1014.7 0.0
19/05:30am 19.4 21.1 17.2 87 1.3 NE 4 7 2 4 1014.5 1014.4 0.0
19/05:00am 19.6 20.7 17.2 86 1.5 E 7 9 4 5 1014.4 1014.3 0.0
19/04:30am 20.4 21.6 17.4 83 1.8 ENE 7 9 4 5 1014.1 1014.0 0.0
19/04:00am 20.5 21.8 17.5 83 1.8 NE 7 11 4 6 1013.8 1013.7 0.0
19/03:30am 20.6 22.1 18.0 85 1.6 NE 7 9 4 5 1013.8 1013.7 0.0
19/03:00am 20.4 22.0 18.3 88 1.3 NNE 7 11 4 6 1013.9 1013.8 0.0
19/02:30am 20.3 22.0 18.4 89 1.2 NNE 7 9 4 5 1014.1 1014.0 0.0
19/02:00am 20.3 22.0 18.6 90 1.1 NE 7 11 4 6 1014.3 1014.2 0.0
19/01:30am 20.7 22.6 19.0 90 1.1 E 7 9 4 5 1014.6 1014.5 0.0
19/01:00am 20.3 21.5 19.0 92 0.8 NE 11 13 6 7 1014.5 1014.4 0.0
19/12:30am 20.1 21.8 18.6 91 0.9 NE 7 7 4 4 1014.3 1014.2 0.0
19/12:00am 20.6 23.7 18.7 89 1.2 CALM 0 0 0 0 1014.4 1014.3 0.0
 
Date/Time
EST
Temp
°C
App
Temp
°C
Dew
Point
°C
Rel
Hum
%
Delta-T
°C
Wind Press
QNH
hPa
Press
MSL
hPa
Rain since
9am
mm
Dir  Spd
km/h
Gust
km/h
Spd
kts
Gust
kts
18/11:30pm 21.0 23.8 18.8 87 1.4 SE 2 7 1 4 1014.4 1014.3 0.0
18/11:00pm 21.5 24.8 19.1 86 1.5 CALM 0 0 0 0 1014.5 1014.4 0.0
18/10:30pm 22.1 25.5 19.3 84 1.8 CALM 0 0 0 0 1014.3 1014.2 0.0
18/10:00pm 22.9 25.7 19.7 82 2.1 W 4 9 2 5 1014.2 1014.1 0.0
18/09:30pm 23.4 25.3 19.8 80 2.3 SW 9 15 5 8 1014.2 1014.1 0.0
18/09:00pm 23.7 25.0 19.2 76 2.9 SW 11 17 6 9 1014.1 1014.0 0.0
18/08:30pm 24.0 24.7 18.9 73 3.2 SW 13 17 7 9 1013.9 1013.8 0.0
18/08:00pm 24.3 24.6 18.0 68 4.0 SW 13 17 7 9 1013.5 1013.4 0.0
18/07:30pm 24.9 25.0 17.4 63 4.7 WSW 13 17 7 9 1013.2 1013.1 0.0
18/07:00pm 25.6 25.3 17.3 60 5.2 WSW 15 20 8 11 1012.8 1012.7 0.0
18/06:30pm 26.6 26.4 17.7 58 5.6 WSW 15 24 8 13 1012.2 1012.1 0.0
18/06:00pm 28.0 27.6 18.1 55 6.3 WSW 17 24 9 13 1011.8 1011.7 0.0
18/05:30pm 29.4 28.5 18.2 51 7.2 WSW 20 28 11 15 1011.4 1011.3 0.0
18/05:00pm 31.5 30.7 18.1 44 8.6 WSW 19 24 10 13 1011.0 1010.9 0.0
18/04:30pm 32.6 32.2 18.0 41 9.4 W 17 22 9 12 1010.8 1010.7 0.0
18/04:00pm 34.8 33.1 12.5 26 13.4 ENE 13 19 7 10 1010.7 1010.6 0.0
18/03:30pm 34.8 32.9 13.0 26 13.2 SE 15 22 8 12 1010.8 1010.7 0.0
18/03:00pm 34.9 34.5 14.2 28 12.7 SE 9 19 5 10 1011.0 1010.9 0.0
18/02:30pm 33.9 32.8 14.4 31 12.0 SE 13 17 7 9 1011.5 1011.4 0.0
18/02:00pm 34.0 33.2 14.0 30 12.2 SSW 11 20 6 11 1012.1 1012.0 0.0
18/01:30pm 32.7 32.0 14.3 32 11.2 ESE 11 19 6 10 1012.7 1012.6 0.0
18/01:00pm 32.0 31.4 14.6 34 10.7 SSE 11 20 6 11 1013.3 1013.2 0.0
18/12:30pm 31.0 30.1 13.7 34 10.4 SE 11 20 6 11 1013.9 1013.8 0.0
18/12:00pm 30.5 30.3 14.6 38 9.7 E 9 17 5 9 1014.5 1014.4 0.0
18/11:30am 29.2 28.5 15.3 42 8.5 E 13 20 7 11 1015.1 1015.1 0.0
18/11:00am 28.7 28.6 15.9 45 7.9 ESE 11 17 6 9 1015.6 1015.6 0.0

Other Formats:

Comma delimited format used in spreadsheet applications
http://www.bom.gov.au/fwo/IDQ60801/IDQ60801.94268.axf

JavaScript Object Notation format (JSON) in row-major order
http://www.bom.gov.au/fwo/IDQ60801/IDQ60801.94268.json